AFL1044 UUEE-URSS
Flight info
| Callsign | AFL1044 |
|---|---|
| Flight time | N/A |
| Altitude | 35000 |
| Route | N0540F350 TOGMO M56 ABAGI B105 NIMTA/K0841F360 B105 NATIT DCT MOLED N50 LIDUS G242 ZG DCT ITAKA DCT OBBUD DCT AMKOL DCT GOTIK DCT MEMZA DCT VENFO DCT BINOL |
| Aircraft | A359/H-VGDW/C |
Departure
| Time | 2026-05-01 14:31 |
|---|---|
| Airport | Sheremetyevo International Airport (UUEE) |
Arrival
| Time | N/A |
|---|---|
| Airport | Sochi International Airport (URSS) |
| Time | Latitude | Longitude | Altitude | Speed | Heading |
|---|---|---|---|---|---|
| 2026-05-01 13:46 | 55.98018 | 37.41840 | 647 ft | 0 kts | 255° |
| 2026-05-01 14:17 | 55.98024 | 37.41871 | 646 ft | 4 kts | 245° |
| 2026-05-01 14:17 | 55.98038 | 37.41911 | 648 ft | 4 kts | 223° |
| 2026-05-01 14:17 | 55.98059 | 37.41937 | 647 ft | 4 kts | 199° |
| 2026-05-01 14:17 | 55.98085 | 37.41946 | 647 ft | 4 kts | 174° |
| 2026-05-01 14:18 | 55.98097 | 37.41943 | 649 ft | 0 kts | 165° |
| 2026-05-01 14:20 | 55.98092 | 37.41945 | 647 ft | 0 kts | 166° |
| 2026-05-01 14:21 | 55.98091 | 37.41945 | 647 ft | 0 kts | 166° |
| 2026-05-01 14:21 | 55.98070 | 37.41954 | 650 ft | 5 kts | 168° |
| 2026-05-01 14:21 | 55.98069 | 37.41954 | 650 ft | 0 kts | 168° |
| 2026-05-01 14:22 | 55.98038 | 37.41967 | 649 ft | 8 kts | 165° |
| 2026-05-01 14:22 | 55.97970 | 37.42003 | 645 ft | 12 kts | 163° |
| 2026-05-01 14:22 | 55.97877 | 37.42050 | 645 ft | 16 kts | 165° |
| 2026-05-01 14:23 | 55.97783 | 37.42094 | 645 ft | 10 kts | 165° |
| 2026-05-01 14:23 | 55.97762 | 37.42104 | 645 ft | 7 kts | 165° |
| 2026-05-01 14:23 | 55.97704 | 37.42120 | 645 ft | 10 kts | 191° |
| 2026-05-01 14:23 | 55.97658 | 37.42014 | 645 ft | 14 kts | 251° |
| 2026-05-01 14:24 | 55.97629 | 37.41824 | 647 ft | 18 kts | 255° |
| 2026-05-01 14:24 | 55.97594 | 37.41590 | 645 ft | 21 kts | 255° |
| 2026-05-01 14:24 | 55.97558 | 37.41340 | 645 ft | 19 kts | 255° |
| 2026-05-01 14:24 | 55.97521 | 37.41091 | 645 ft | 22 kts | 255° |
| 2026-05-01 14:25 | 55.97482 | 37.40821 | 646 ft | 19 kts | 253° |
| 2026-05-01 14:25 | 55.97442 | 37.40573 | 646 ft | 23 kts | 254° |
| 2026-05-01 14:25 | 55.97399 | 37.40285 | 648 ft | 25 kts | 255° |
| 2026-05-01 14:25 | 55.97358 | 37.40009 | 648 ft | 18 kts | 255° |
| 2026-05-01 14:26 | 55.97324 | 37.39777 | 645 ft | 21 kts | 255° |
| 2026-05-01 14:26 | 55.97239 | 37.39205 | 647 ft | 26 kts | 255° |
| 2026-05-01 14:26 | 55.97198 | 37.38935 | 647 ft | 11 kts | 255° |
| 2026-05-01 14:27 | 55.97181 | 37.38823 | 647 ft | 8 kts | 255° |
| 2026-05-01 14:27 | 55.97180 | 37.38816 | 647 ft | 0 kts | 255° |
| 2026-05-01 14:28 | 55.97180 | 37.38815 | 647 ft | 0 kts | 255° |
| 2026-05-01 14:28 | 55.97172 | 37.38763 | 645 ft | 7 kts | 255° |
| 2026-05-01 14:28 | 55.97158 | 37.38695 | 645 ft | 10 kts | 238° |
| 2026-05-01 14:28 | 55.97107 | 37.38662 | 647 ft | 0 kts | 173° |
| 2026-05-01 14:29 | 55.97090 | 37.38667 | 645 ft | 7 kts | 169° |
| 2026-05-01 14:29 | 55.97030 | 37.38696 | 646 ft | 11 kts | 156° |
| 2026-05-01 14:30 | 55.97003 | 37.38821 | 644 ft | 0 kts | 76° |
| 2026-05-01 14:30 | 55.97004 | 37.38823 | 644 ft | 2 kts | 76° |
| 2026-05-01 14:30 | 55.97065 | 37.39228 | 645 ft | 69 kts | 75° |
| 2026-05-01 14:31 | 55.97519 | 37.42260 | 805 ft | 166 kts | 75° |
| 2026-05-01 14:31 | 55.97827 | 37.44260 | 1454 ft | 168 kts | 73° |
| 2026-05-01 14:31 | 55.98010 | 37.46388 | 2004 ft | 185 kts | 89° |
| 2026-05-01 14:31 | 55.97941 | 37.48842 | 2285 ft | 212 kts | 93° |
| 2026-05-01 14:32 | 55.97859 | 37.51635 | 2528 ft | 235 kts | 91° |
| 2026-05-01 14:32 | 55.97820 | 37.54598 | 2787 ft | 240 kts | 90° |
| 2026-05-01 14:32 | 55.97813 | 37.57602 | 3089 ft | 242 kts | 89° |
| 2026-05-01 14:32 | 55.97819 | 37.60604 | 3684 ft | 242 kts | 89° |
| 2026-05-01 14:33 | 55.97837 | 37.63621 | 4259 ft | 252 kts | 88° |
| 2026-05-01 14:33 | 55.98139 | 37.66825 | 4437 ft | 264 kts | 67° |
| 2026-05-01 14:33 | 55.99171 | 37.69423 | 4266 ft | 260 kts | 37° |
| 2026-05-01 14:33 | 56.00752 | 37.70895 | 4194 ft | 257 kts | 18° |
| 2026-05-01 14:34 | 56.02449 | 37.71933 | 4192 ft | 258 kts | 17° |
| 2026-05-01 14:34 | 56.04150 | 37.72939 | 4177 ft | 258 kts | 17° |
| 2026-05-01 14:34 | 56.05892 | 37.73600 | 4185 ft | 256 kts | 0° |
| 2026-05-01 14:34 | 56.07618 | 37.72992 | 4200 ft | 252 kts | 333° |
| 2026-05-01 14:35 | 56.08977 | 37.71034 | 4502 ft | 254 kts | 309° |
| 2026-05-01 14:35 | 56.10053 | 37.68492 | 5311 ft | 256 kts | 306° |
| 2026-05-01 14:35 | 56.11089 | 37.65907 | 5921 ft | 256 kts | 306° |
| 2026-05-01 14:35 | 56.11959 | 37.63123 | 6173 ft | 258 kts | 291° |
| 2026-05-01 14:36 | 56.12176 | 37.59944 | 6257 ft | 260 kts | 264° |
| 2026-05-01 14:36 | 56.11720 | 37.56775 | 6672 ft | 266 kts | 253° |
| 2026-05-01 14:36 | 56.11107 | 37.53604 | 7439 ft | 270 kts | 253° |
| 2026-05-01 14:36 | 56.10490 | 37.50424 | 7997 ft | 272 kts | 253° |
| 2026-05-01 14:37 | 56.09869 | 37.47200 | 8173 ft | 274 kts | 253° |
| 2026-05-01 14:37 | 56.09251 | 37.43964 | 8177 ft | 275 kts | 253° |
| 2026-05-01 14:37 | 56.08633 | 37.40723 | 8183 ft | 275 kts | 253° |
| 2026-05-01 14:37 | 56.07964 | 37.37515 | 8183 ft | 277 kts | 247° |
| 2026-05-01 14:38 | 56.06819 | 37.34735 | 8184 ft | 280 kts | 222° |
| 2026-05-01 14:38 | 56.05121 | 37.33131 | 8184 ft | 283 kts | 195° |
| 2026-05-01 14:38 | 56.03160 | 37.32756 | 8185 ft | 285 kts | 181° |
| 2026-05-01 14:38 | 56.01174 | 37.32742 | 8182 ft | 286 kts | 180° |
| 2026-05-01 14:39 | 55.99181 | 37.32753 | 8182 ft | 286 kts | 180° |
| 2026-05-01 14:39 | 55.97195 | 37.32895 | 8184 ft | 286 kts | 175° |
| 2026-05-01 14:39 | 55.95206 | 37.33243 | 8183 ft | 286 kts | 174° |
| 2026-05-01 14:39 | 55.93223 | 37.33614 | 8181 ft | 286 kts | 174° |
| 2026-05-01 14:40 | 55.91240 | 37.33981 | 8181 ft | 286 kts | 174° |
| 2026-05-01 14:40 | 55.89263 | 37.34343 | 8182 ft | 286 kts | 174° |
| 2026-05-01 14:40 | 55.87277 | 37.34671 | 8273 ft | 286 kts | 177° |
| 2026-05-01 14:40 | 55.85303 | 37.34799 | 8733 ft | 290 kts | 179° |
| 2026-05-01 14:41 | 55.83283 | 37.34892 | 9117 ft | 289 kts | 179° |
| 2026-05-01 14:41 | 55.81267 | 37.35000 | 9189 ft | 290 kts | 178° |
| 2026-05-01 14:41 | 55.79250 | 37.35121 | 9185 ft | 291 kts | 178° |
| 2026-05-01 14:41 | 55.77223 | 37.35250 | 9185 ft | 291 kts | 178° |
| 2026-05-01 14:42 | 55.75193 | 37.35382 | 9186 ft | 292 kts | 178° |
| 2026-05-01 14:42 | 55.73167 | 37.35518 | 9187 ft | 291 kts | 178° |
| 2026-05-01 14:42 | 55.71151 | 37.35663 | 9290 ft | 290 kts | 178° |
| 2026-05-01 14:42 | 55.69124 | 37.35816 | 9801 ft | 294 kts | 178° |
| 2026-05-01 14:43 | 55.67080 | 37.35969 | 10133 ft | 293 kts | 178° |
| 2026-05-01 14:43 | 55.65039 | 37.36127 | 10188 ft | 294 kts | 177° |
| 2026-05-01 14:43 | 55.63033 | 37.36762 | 10183 ft | 294 kts | 159° |
| 2026-05-01 14:43 | 55.61335 | 37.38703 | 10194 ft | 291 kts | 131° |
| 2026-05-01 14:44 | 55.60273 | 37.41743 | 10357 ft | 297 kts | 109° |
| 2026-05-01 14:44 | 55.58890 | 37.49210 | 10962 ft | 341 kts | 105° |
| 2026-05-01 14:44 | 55.58158 | 37.53298 | 11470 ft | 354 kts | 105° |
| 2026-05-01 14:45 | 55.57394 | 37.57462 | 12262 ft | 358 kts | 105° |
| 2026-05-01 14:45 | 55.54640 | 37.64915 | 13525 ft | 376 kts | 132° |
| 2026-05-01 14:45 | 55.52708 | 37.68075 | 14031 ft | 379 kts | 134° |
| 2026-05-01 14:46 | 55.50582 | 37.70803 | 14183 ft | 387 kts | 148° |
| 2026-05-01 14:46 | 55.45300 | 37.73081 | 14183 ft | 396 kts | 170° |
| 2026-05-01 14:46 | 55.42560 | 37.73687 | 14184 ft | 396 kts | 170° |
| 2026-05-01 14:47 | 55.39823 | 37.74302 | 14186 ft | 396 kts | 169° |
| 2026-05-01 14:47 | 55.37089 | 37.74933 | 14185 ft | 397 kts | 169° |
| 2026-05-01 14:47 | 55.34364 | 37.75651 | 14182 ft | 395 kts | 165° |
| 2026-05-01 14:48 | 55.29194 | 37.78711 | 14188 ft | 391 kts | 155° |
| 2026-05-01 14:48 | 55.26651 | 37.80409 | 14188 ft | 391 kts | 155° |
| 2026-05-01 14:48 | 55.21557 | 37.83802 | 14355 ft | 394 kts | 155° |
| 2026-05-01 14:49 | 55.16391 | 37.87207 | 15821 ft | 399 kts | 155° |
| 2026-05-01 14:49 | 55.11184 | 37.90851 | 17046 ft | 403 kts | 147° |
| 2026-05-01 14:50 | 55.08316 | 37.94833 | 17536 ft | 398 kts | 129° |
| 2026-05-01 14:50 | 55.03105 | 38.04218 | 19151 ft | 408 kts | 131° |
| 2026-05-01 14:51 | 55.01001 | 38.07587 | 19721 ft | 413 kts | 131° |
| 2026-05-01 14:51 | 54.96724 | 38.14343 | 21100 ft | 419 kts | 131° |
| 2026-05-01 14:52 | 54.92387 | 38.21101 | 22508 ft | 424 kts | 131° |
| 2026-05-01 14:52 | 54.90174 | 38.24531 | 23154 ft | 427 kts | 131° |
| 2026-05-01 14:52 | 54.85690 | 38.31462 | 24265 ft | 435 kts | 131° |
| 2026-05-01 14:53 | 54.83411 | 38.34973 | 24757 ft | 439 kts | 131° |
| 2026-05-01 14:53 | 54.81113 | 38.38507 | 25244 ft | 443 kts | 131° |
| 2026-05-01 14:53 | 54.78795 | 38.42064 | 25731 ft | 447 kts | 131° |
| 2026-05-01 14:53 | 54.76453 | 38.45653 | 26222 ft | 451 kts | 131° |
| 2026-05-01 14:54 | 54.74093 | 38.49265 | 26747 ft | 455 kts | 131° |
| 2026-05-01 14:54 | 54.71708 | 38.52910 | 27212 ft | 459 kts | 131° |
| 2026-05-01 14:54 | 54.69304 | 38.56577 | 27682 ft | 463 kts | 131° |
| 2026-05-01 14:54 | 54.66874 | 38.60276 | 28165 ft | 467 kts | 131° |
| 2026-05-01 14:55 | 54.64422 | 38.64002 | 28631 ft | 471 kts | 131° |
| 2026-05-01 14:55 | 54.61952 | 38.67751 | 29086 ft | 475 kts | 131° |
| 2026-05-01 14:55 | 54.59458 | 38.71530 | 29513 ft | 479 kts | 131° |
| 2026-05-01 14:55 | 54.56945 | 38.75331 | 29931 ft | 483 kts | 131° |
| 2026-05-01 14:56 | 54.54409 | 38.79159 | 30320 ft | 487 kts | 131° |
| 2026-05-01 14:56 | 54.51851 | 38.83016 | 30680 ft | 490 kts | 132° |
| 2026-05-01 14:56 | 54.49277 | 38.86886 | 31006 ft | 493 kts | 133° |
| 2026-05-01 14:56 | 54.46681 | 38.90783 | 31329 ft | 497 kts | 133° |
| 2026-05-01 14:57 | 54.44070 | 38.94697 | 31627 ft | 500 kts | 133° |
| 2026-05-01 14:57 | 54.39248 | 39.03214 | 32159 ft | 495 kts | 120° |
| 2026-05-01 14:57 | 54.37458 | 39.08219 | 32432 ft | 491 kts | 113° |
| 2026-05-01 14:58 | 54.35978 | 39.13493 | 32794 ft | 489 kts | 109° |
| 2026-05-01 14:58 | 54.34667 | 39.18873 | 33151 ft | 488 kts | 107° |
| 2026-05-01 14:58 | 54.33426 | 39.24291 | 33431 ft | 491 kts | 108° |
| 2026-05-01 14:58 | 54.32190 | 39.29753 | 33677 ft | 493 kts | 108° |
| 2026-05-01 14:59 | 54.30931 | 39.35218 | 34031 ft | 493 kts | 108° |
| 2026-05-01 14:59 | 54.29646 | 39.40658 | 34353 ft | 493 kts | 109° |
| 2026-05-01 14:59 | 54.28338 | 39.46097 | 34617 ft | 494 kts | 109° |
| 2026-05-01 14:59 | 54.27017 | 39.51524 | 34901 ft | 494 kts | 110° |
| 2026-05-01 15:00 | 54.24347 | 39.62393 | 35188 ft | 496 kts | 110° |
| 2026-05-01 15:00 | 54.23008 | 39.67822 | 35193 ft | 496 kts | 110° |
| 2026-05-01 15:01 | 54.20320 | 39.78686 | 35191 ft | 496 kts | 110° |
| 2026-05-01 15:01 | 54.17646 | 39.89457 | 35189 ft | 496 kts | 110° |
| 2026-05-01 15:02 | 54.14944 | 40.00294 | 35189 ft | 496 kts | 110° |
| 2026-05-01 15:02 | 54.12252 | 40.11136 | 35187 ft | 495 kts | 108° |
| 2026-05-01 15:03 | 54.10140 | 40.22274 | 35192 ft | 495 kts | 104° |
| 2026-05-01 15:03 | 54.08176 | 40.33541 | 35190 ft | 496 kts | 104° |
| 2026-05-01 15:04 | 54.06227 | 40.44816 | 35191 ft | 497 kts | 104° |
| 2026-05-01 15:04 | 54.04259 | 40.56081 | 35193 ft | 497 kts | 104° |
| 2026-05-01 15:05 | 54.02273 | 40.67332 | 35189 ft | 497 kts | 104° |
| 2026-05-01 15:05 | 54.00270 | 40.78596 | 35195 ft | 499 kts | 105° |
| 2026-05-01 15:06 | 53.98249 | 40.89887 | 35195 ft | 500 kts | 105° |
| 2026-05-01 15:06 | 53.96215 | 41.01182 | 35186 ft | 500 kts | 105° |
| 2026-05-01 15:07 | 53.94238 | 41.12485 | 35190 ft | 499 kts | 104° |
| 2026-05-01 15:07 | 53.92404 | 41.23858 | 35192 ft | 499 kts | 104° |
| 2026-05-01 15:08 | 53.90563 | 41.35248 | 35187 ft | 502 kts | 104° |
| 2026-05-01 15:08 | 53.88676 | 41.46677 | 35188 ft | 503 kts | 104° |
| 2026-05-01 15:09 | 53.86767 | 41.58078 | 35190 ft | 503 kts | 105° |
| 2026-05-01 15:09 | 53.84848 | 41.69452 | 35187 ft | 502 kts | 105° |
| 2026-05-01 15:10 | 53.82922 | 41.80830 | 35189 ft | 504 kts | 105° |
| 2026-05-01 15:10 | 53.80308 | 41.96038 | 35185 ft | 506 kts | 105° |
| 2026-05-01 15:11 | 53.77330 | 42.13183 | 35185 ft | 507 kts | 105° |
| 2026-05-01 15:12 | 53.75334 | 42.24611 | 35186 ft | 506 kts | 106° |
| 2026-05-01 15:12 | 53.72317 | 42.41754 | 35180 ft | 509 kts | 107° |
| 2026-05-01 15:13 | 53.68795 | 42.58654 | 35178 ft | 509 kts | 119° |
| 2026-05-01 15:14 | 53.64488 | 42.68034 | 35172 ft | 507 kts | 139° |
| 2026-05-01 15:14 | 53.55399 | 42.76835 | 35175 ft | 504 kts | 158° |
| 2026-05-01 15:15 | 53.42482 | 42.85908 | 35171 ft | 503 kts | 158° |
| 2026-05-01 15:16 | 53.29598 | 42.95075 | 35170 ft | 503 kts | 159° |
| 2026-05-01 15:18 | 53.13500 | 43.06512 | 35163 ft | 503 kts | 159° |
| 2026-05-01 15:19 | 53.00709 | 43.15987 | 35165 ft | 503 kts | 158° |
| 2026-05-01 15:19 | 52.91131 | 43.23116 | 35158 ft | 503 kts | 158° |
| 2026-05-01 15:20 | 52.81525 | 43.30188 | 35153 ft | 503 kts | 159° |
| 2026-05-01 15:21 | 52.75129 | 43.34875 | 35159 ft | 502 kts | 159° |
| 2026-05-01 15:21 | 52.68741 | 43.39541 | 35154 ft | 502 kts | 159° |
| 2026-05-01 15:22 | 52.59145 | 43.46523 | 35154 ft | 503 kts | 159° |
| 2026-05-01 15:22 | 52.52747 | 43.51161 | 35154 ft | 503 kts | 159° |
| 2026-05-01 15:23 | 52.46349 | 43.55784 | 35154 ft | 503 kts | 159° |
| 2026-05-01 15:23 | 52.39944 | 43.60397 | 35157 ft | 502 kts | 159° |
| 2026-05-01 15:24 | 52.33541 | 43.64995 | 35157 ft | 502 kts | 159° |
| 2026-05-01 15:24 | 52.27145 | 43.69573 | 35153 ft | 502 kts | 159° |
| 2026-05-01 15:25 | 52.20750 | 43.74135 | 35152 ft | 501 kts | 160° |
| 2026-05-01 15:25 | 52.14363 | 43.78677 | 35157 ft | 501 kts | 160° |
| 2026-05-01 15:26 | 52.08010 | 43.83180 | 35157 ft | 501 kts | 160° |
| 2026-05-01 15:26 | 52.01619 | 43.87697 | 35158 ft | 500 kts | 160° |
| 2026-05-01 15:27 | 51.95241 | 43.92191 | 35159 ft | 500 kts | 160° |
| 2026-05-01 15:28 | 51.85667 | 43.98909 | 35161 ft | 500 kts | 160° |
| 2026-05-01 15:28 | 51.79284 | 44.03371 | 35147 ft | 499 kts | 161° |
| 2026-05-01 15:29 | 51.69725 | 44.10029 | 35147 ft | 498 kts | 161° |
| 2026-05-01 15:30 | 51.56992 | 44.18847 | 35151 ft | 498 kts | 161° |
| 2026-05-01 15:31 | 51.37913 | 44.31962 | 35152 ft | 497 kts | 161° |
| 2026-05-01 15:32 | 51.25200 | 44.40635 | 35142 ft | 496 kts | 162° |
| 2026-05-01 15:33 | 51.15523 | 44.46016 | 35147 ft | 484 kts | 176° |
| 2026-05-01 15:34 | 51.05584 | 44.46110 | 35146 ft | 475 kts | 188° |